createdAt,value
2023-03-27T00:01:55.067Z,100135.48
2023-03-27T00:04:23.999Z,100129.87
2023-03-27T00:06:55.184Z,100133.73
2023-03-27T00:09:23.318Z,100126.73
2023-03-27T00:11:52.510Z,100127.11
2023-03-27T00:14:22.307Z,100131.20
2023-03-27T00:16:51.392Z,100126.23
2023-03-27T00:19:21.267Z,100123.36
2023-03-27T00:21:51.681Z,100127.63
2023-03-27T00:24:20.240Z,100137.11
2023-03-27T00:26:48.422Z,100131.55
2023-03-27T00:29:18.357Z,100131.98
2023-03-27T00:31:47.828Z,100133.51
2023-03-27T00:34:16.223Z,100132.71
2023-03-27T00:36:48.381Z,100129.72
2023-03-27T00:39:16.987Z,100130.73
2023-03-27T00:41:45.383Z,100133.42
2023-03-27T00:44:22.551Z,100136.27
2023-03-27T00:46:51.306Z,100140.69
2023-03-27T00:49:19.396Z,100141.23
2023-03-27T00:51:48.212Z,100141.66
2023-03-27T00:54:16.575Z,100136.91
2023-03-27T00:56:44.952Z,100134.89
2023-03-27T00:59:14.043Z,100132.12
2023-03-27T01:01:43.404Z,100134.20
2023-03-27T01:04:12.602Z,100127.64
2023-03-27T01:06:42.845Z,100122.65
2023-03-27T01:09:11.319Z,100124.92
2023-03-27T01:11:52.179Z,100128.00
2023-03-27T01:14:29.545Z,100127.89
2023-03-27T01:16:57.840Z,100124.35
2023-03-27T01:19:29.505Z,100123.40
2023-03-27T01:22:27.197Z,100128.92
2023-03-27T01:25:01.210Z,100139.48
2023-03-27T01:27:58.659Z,100144.48
2023-03-27T01:30:31.023Z,100144.95
2023-03-27T01:33:16.292Z,100149.43
2023-03-27T01:35:51.412Z,100150.22
2023-03-27T01:38:28.888Z,100148.27
2023-03-27T01:41:12.538Z,100142.93
2023-03-27T01:43:40.793Z,100139.61
2023-03-27T01:46:09.931Z,100139.38
2023-03-27T01:48:43.948Z,100140.40
2023-03-27T01:51:20.900Z,100139.48
2023-03-27T01:53:49.672Z,100140.25
2023-03-27T01:56:51.818Z,100137.30
2023-03-27T01:59:22.883Z,100143.74
2023-03-27T02:01:54.715Z,100140.23
2023-03-27T02:04:29.000Z,100139.27
2023-03-27T02:06:59.290Z,100140.35
2023-03-27T02:09:38.981Z,100143.89
2023-03-27T02:12:27.578Z,100143.82
2023-03-27T02:14:57.131Z,100143.62
2023-03-27T02:17:50.074Z,100144.05
2023-03-27T02:20:18.425Z,100138.70
2023-03-27T02:22:49.071Z,100131.23
2023-03-27T02:25:23.518Z,100127.35
2023-03-27T02:27:58.907Z,100117.61
2023-03-27T02:30:27.830Z,100116.66
2023-03-27T02:33:19.731Z,100120.44
2023-03-27T02:36:09.352Z,100124.45
2023-03-27T02:39:01.863Z,100118.48
2023-03-27T02:41:33.663Z,100122.90
2023-03-27T02:44:32.971Z,100135.81
2023-03-27T02:47:09.605Z,100144.45
2023-03-27T02:49:42.014Z,100141.86
2023-03-27T02:52:12.405Z,100144.77
2023-03-27T02:54:43.985Z,100153.71
2023-03-27T02:57:15.161Z,100155.74
2023-03-27T03:00:05.622Z,100156.69
2023-03-27T03:02:40.641Z,100161.27
2023-03-27T03:05:18.085Z,100160.61
2023-03-27T03:07:48.563Z,100154.27
2023-03-27T03:10:16.902Z,100151.42
2023-03-27T03:12:45.459Z,100151.27
2023-03-27T03:15:14.016Z,100150.72
2023-03-27T03:17:42.588Z,100149.04
2023-03-27T03:20:22.130Z,100149.02
2023-03-27T03:22:50.487Z,100151.74
2023-03-27T03:25:19.960Z,100151.61
2023-03-27T03:27:48.965Z,100154.58
2023-03-27T03:30:18.527Z,100150.38
2023-03-27T03:33:18.057Z,100152.16
2023-03-27T03:35:50.203Z,100152.14
2023-03-27T03:38:38.101Z,100152.33
2023-03-27T03:41:11.615Z,100157.52
2023-03-27T03:43:39.769Z,100155.98
2023-03-27T03:46:08.879Z,100160.98
2023-03-27T03:48:37.591Z,100157.28
2023-03-27T03:51:11.337Z,100154.63
2023-03-27T03:53:39.744Z,100148.66
2023-03-27T03:56:08.251Z,100150.14
2023-03-27T03:58:38.885Z,100149.29
2023-03-27T04:01:09.465Z,100152.02
2023-03-27T04:03:46.165Z,100153.48
2023-03-27T04:06:17.794Z,100153.79
2023-03-27T04:08:49.938Z,100148.75
2023-03-27T04:11:42.355Z,100148.14
2023-03-27T04:14:17.094Z,100149.34
2023-03-27T04:16:46.611Z,100149.51
2023-03-27T04:19:21.114Z,100145.55
2023-03-27T04:21:54.689Z,100144.05
2023-03-27T04:24:24.248Z,100140.59
2023-03-27T04:26:53.003Z,100144.47
2023-03-27T04:29:24.941Z,100144.53
2023-03-27T04:31:57.532Z,100148.95
2023-03-27T04:34:46.928Z,100144.64
2023-03-27T04:37:43.303Z,100139.98
2023-03-27T04:40:18.349Z,100141.41
2023-03-27T04:42:50.453Z,100139.07
2023-03-27T04:45:20.749Z,100136.80
2023-03-27T04:47:50.241Z,100137.85
2023-03-27T04:50:20.703Z,100138.01
2023-03-27T04:52:50.484Z,100136.20
2023-03-27T04:55:20.118Z,100140.23
2023-03-27T04:57:50.490Z,100140.95
2023-03-27T05:00:20.232Z,100135.81
2023-03-27T05:02:48.895Z,100139.54
2023-03-27T05:05:40.160Z,100144.02
2023-03-27T05:08:09.311Z,100144.55
2023-03-27T05:10:37.452Z,100145.50
2023-03-27T05:13:06.772Z,100142.48
2023-03-27T05:15:35.693Z,100141.14
2023-03-27T05:18:07.479Z,100136.86
2023-03-27T05:20:40.639Z,100135.68
2023-03-27T05:23:11.096Z,100136.11
2023-03-27T05:25:39.652Z,100135.77
2023-03-27T05:28:14.002Z,100136.63
2023-03-27T05:30:43.285Z,100137.83
2023-03-27T05:33:20.823Z,100142.90
2023-03-27T05:35:50.141Z,100148.10
2023-03-27T05:38:19.377Z,100149.61
2023-03-27T05:41:06.400Z,100156.05
2023-03-27T05:43:38.886Z,100156.01
2023-03-27T05:46:07.898Z,100153.28
2023-03-27T05:48:38.762Z,100155.89
2023-03-27T05:51:07.003Z,100158.21
2023-03-27T05:53:39.481Z,100150.58
2023-03-27T05:56:27.329Z,100156.23
2023-03-27T05:58:59.304Z,100158.29
2023-03-27T06:01:28.118Z,100154.39
2023-03-27T06:03:58.237Z,100151.69
2023-03-27T06:06:33.039Z,100150.27
2023-03-27T06:09:01.626Z,100153.80
2023-03-27T06:11:30.944Z,100153.23
2023-03-27T06:13:59.625Z,100149.63
2023-03-27T06:16:40.538Z,100155.10
2023-03-27T06:19:39.096Z,100156.27
2023-03-27T06:22:07.837Z,100155.67
2023-03-27T06:24:36.442Z,100156.14
2023-03-27T06:27:08.115Z,100157.63
2023-03-27T06:29:37.503Z,100157.08
2023-03-27T06:32:06.141Z,100152.73
2023-03-27T06:34:40.413Z,100159.48
2023-03-27T06:37:29.538Z,100152.17
2023-03-27T06:40:02.288Z,100150.36
2023-03-27T06:42:31.418Z,100151.27
2023-03-27T06:45:10.559Z,100158.79
2023-03-27T06:48:17.906Z,100159.08
2023-03-27T06:50:51.170Z,100158.27
2023-03-27T06:55:51.463Z,100155.98
2023-03-27T06:58:20.894Z,100156.36
2023-03-27T07:00:50.574Z,100156.34
2023-03-27T07:03:20.906Z,100151.31
2023-03-27T07:06:08.067Z,100150.29
2023-03-27T07:08:49.015Z,100150.21
2023-03-27T07:11:18.126Z,100148.48
2023-03-27T07:13:54.969Z,100149.88
2023-03-27T07:16:28.053Z,100150.01
2023-03-27T07:19:02.548Z,100145.00
2023-03-27T07:21:32.460Z,100147.25
2023-03-27T07:24:00.979Z,100142.11
2023-03-27T07:26:33.858Z,100137.71
2023-03-27T07:29:04.322Z,100137.59
2023-03-27T07:31:51.599Z,100138.23
2023-03-27T07:34:27.325Z,100132.33
2023-03-27T07:37:25.082Z,100134.62
2023-03-27T07:40:16.540Z,100126.41
2023-03-27T07:42:51.533Z,100124.14
2023-03-27T07:45:24.199Z,100123.20
2023-03-27T07:47:56.705Z,100121.70
2023-03-27T07:50:25.838Z,100115.95
2023-03-27T07:52:54.179Z,100112.16
2023-03-27T07:55:23.298Z,100111.30
2023-03-27T07:58:03.541Z,100109.15
2023-03-27T08:00:35.740Z,100107.02
2023-03-27T08:03:14.516Z,100105.44
2023-03-27T08:05:58.257Z,100107.44
2023-03-27T08:08:28.515Z,100110.59
2023-03-27T08:10:58.349Z,100107.73
2023-03-27T08:13:33.253Z,100111.33
2023-03-27T08:16:09.106Z,100103.85
2023-03-27T08:18:38.512Z,100101.65
2023-03-27T08:21:08.992Z,100104.69
2023-03-27T08:23:38.866Z,100100.70
2023-03-27T08:26:10.094Z,100102.21
2023-03-27T08:28:45.312Z,100098.27
2023-03-27T08:31:14.352Z,100096.27
2023-03-27T08:33:43.357Z,100093.56
2023-03-27T08:36:15.812Z,100090.52
2023-03-27T08:38:45.280Z,100084.48
2023-03-27T08:41:27.386Z,100082.09
2023-03-27T08:44:18.863Z,100082.78
2023-03-27T08:46:53.203Z,100076.71
2023-03-27T08:49:21.971Z,100071.10
2023-03-27T08:52:15.891Z,100063.02
2023-03-27T08:54:46.477Z,100058.80
2023-03-27T08:57:18.392Z,100053.05
2023-03-27T08:59:48.194Z,100044.60
2023-03-27T09:02:25.813Z,100043.86
2023-03-27T09:05:02.712Z,100043.66
2023-03-27T09:07:36.220Z,100042.89
2023-03-27T09:10:34.808Z,100041.79
2023-03-27T09:13:11.466Z,100039.20
2023-03-27T09:15:42.589Z,100039.95
2023-03-27T09:18:13.145Z,100038.60
2023-03-27T09:20:42.808Z,100035.72
2023-03-27T09:23:12.481Z,100038.48
2023-03-27T09:26:08.946Z,100043.58
2023-03-27T09:28:56.938Z,100048.09
2023-03-27T09:31:29.478Z,100047.88
2023-03-27T09:33:59.654Z,100047.29
2023-03-27T09:36:28.093Z,100047.08
2023-03-27T09:39:03.019Z,100049.63
2023-03-27T09:41:31.980Z,100046.36
2023-03-27T09:44:06.315Z,100045.55
2023-03-27T09:46:36.712Z,100047.02
2023-03-27T09:49:09.841Z,100049.64
2023-03-27T09:51:39.166Z,100053.12
2023-03-27T09:54:12.962Z,100058.73
2023-03-27T09:56:43.442Z,100059.84
2023-03-27T09:59:24.718Z,100066.02
2023-03-27T10:01:55.494Z,100061.63
2023-03-27T10:04:25.169Z,100064.23
2023-03-27T10:07:02.019Z,100060.10
2023-03-27T10:10:02.469Z,100066.29
2023-03-27T10:12:34.625Z,100064.59
2023-03-27T10:15:04.512Z,100063.02
2023-03-27T10:17:39.475Z,100053.66
2023-03-27T10:20:18.456Z,100057.09
2023-03-27T10:22:56.347Z,100056.39
2023-03-27T10:25:34.880Z,100051.05
2023-03-27T10:28:20.159Z,100042.52
2023-03-27T10:31:11.253Z,100032.88
2023-03-27T10:34:00.755Z,100029.11
2023-03-27T10:36:49.570Z,100030.70
2023-03-27T10:39:26.857Z,100028.04
2023-03-27T10:42:22.881Z,100022.66
2023-03-27T10:44:54.705Z,100022.13
2023-03-27T10:47:24.475Z,100015.88
2023-03-27T10:49:53.968Z,100010.68
2023-03-27T10:52:50.885Z,100008.59
2023-03-27T10:55:29.977Z,100004.73
2023-03-27T10:57:59.522Z,99998.46
2023-03-27T11:00:38.243Z,99990.45
2023-03-27T11:03:10.212Z,99991.36
2023-03-27T11:05:40.122Z,99984.01
2023-03-27T11:08:21.927Z,99984.17
2023-03-27T11:10:52.215Z,99980.27
2023-03-27T11:13:28.332Z,99973.23
2023-03-27T11:16:21.040Z,99973.97
2023-03-27T11:19:43.116Z,99967.38
2023-03-27T11:22:35.690Z,99965.46
2023-03-27T11:25:38.133Z,99969.10
2023-03-27T11:28:19.976Z,99964.64
2023-03-27T11:30:49.981Z,99959.33
2023-03-27T11:33:25.818Z,99949.90
2023-03-27T11:36:02.377Z,99954.43
2023-03-27T11:38:46.923Z,99947.30
2023-03-27T11:41:15.607Z,99945.65
2023-03-27T11:43:44.078Z,99938.50
2023-03-27T11:46:49.162Z,99939.95
2023-03-27T11:49:17.407Z,99940.63
2023-03-27T11:51:56.921Z,99944.57
2023-03-27T11:54:29.761Z,99940.61
2023-03-27T11:57:06.380Z,99933.95
2023-03-27T12:00:02.821Z,99931.95
2023-03-27T12:02:38.044Z,99925.85
2023-03-27T12:05:21.599Z,99923.33
2023-03-27T12:08:04.908Z,99917.79
2023-03-27T12:10:34.201Z,99921.19
2023-03-27T12:13:17.031Z,99915.70
2023-03-27T12:15:52.550Z,99910.53
2023-03-27T12:18:35.316Z,99907.04
2023-03-27T12:21:41.629Z,99904.07
2023-03-27T12:24:33.947Z,99895.39
2023-03-27T12:27:27.759Z,99894.94
2023-03-27T12:30:06.715Z,99887.72
2023-03-27T12:32:44.637Z,99883.80
2023-03-27T12:35:15.216Z,99879.39
2023-03-27T12:38:10.351Z,99879.94
2023-03-27T12:40:40.767Z,99874.81
2023-03-27T12:43:17.937Z,99877.64
2023-03-27T12:46:05.782Z,99875.36
2023-03-27T12:48:35.183Z,99870.00
2023-03-27T12:51:03.688Z,99859.10
2023-03-27T12:53:35.998Z,99859.52
2023-03-27T12:56:19.591Z,99858.29
2023-03-27T12:58:51.650Z,99855.20
2023-03-27T13:01:52.102Z,99850.20
2023-03-27T13:04:42.999Z,99845.21
2023-03-27T13:07:33.821Z,99849.46
2023-03-27T13:10:13.842Z,99846.30
2023-03-27T13:13:00.820Z,99842.69
2023-03-27T13:15:40.286Z,99834.87
2023-03-27T13:18:09.503Z,99828.81
2023-03-27T13:20:48.646Z,99824.61
2023-03-27T13:23:35.506Z,99827.16
2023-03-27T13:26:10.640Z,99827.67
2023-03-27T13:28:48.601Z,99828.45
2023-03-27T13:31:37.024Z,99828.39
2023-03-27T13:34:41.720Z,99828.52
2023-03-27T13:37:15.025Z,99822.66
2023-03-27T13:39:49.107Z,99817.52
2023-03-27T13:42:37.522Z,99810.42
2023-03-27T13:45:09.777Z,99814.77
2023-03-27T13:47:58.624Z,99813.27
2023-03-27T13:50:27.364Z,99810.97
2023-03-27T13:53:05.896Z,99808.41
2023-03-27T13:56:18.947Z,99804.52
2023-03-27T13:59:13.480Z,99801.42
2023-03-27T14:01:46.454Z,99802.92
2023-03-27T14:04:40.193Z,99798.56
2023-03-27T14:07:12.712Z,99799.45
2023-03-27T14:10:05.106Z,99797.70
2023-03-27T14:12:54.369Z,99801.33
2023-03-27T14:15:47.450Z,99801.02
2023-03-27T14:18:42.760Z,99808.53
2023-03-27T14:21:12.695Z,99811.94
2023-03-27T14:24:16.950Z,99809.86
2023-03-27T14:26:48.813Z,99809.83
2023-03-27T14:29:21.352Z,99816.45
2023-03-27T14:31:51.767Z,99810.95
2023-03-27T14:34:35.156Z,99811.46
2023-03-27T14:37:39.310Z,99812.80
2023-03-27T14:40:27.412Z,99810.92
2023-03-27T14:42:58.386Z,99809.71
2023-03-27T14:45:27.881Z,99805.52
2023-03-27T14:48:00.596Z,99796.49
2023-03-27T14:50:34.621Z,99802.04
2023-03-27T14:53:05.803Z,99798.46
2023-03-27T14:55:56.778Z,99793.79
2023-03-27T14:58:48.316Z,99791.31
2023-03-27T15:01:19.710Z,99792.37
2023-03-27T15:03:53.144Z,99790.70
2023-03-27T15:06:26.099Z,99784.91
2023-03-27T15:09:00.658Z,99782.66
2023-03-27T15:11:54.113Z,99782.05
2023-03-27T15:14:28.298Z,99777.33
2023-03-27T15:17:00.915Z,99777.04
2023-03-27T15:19:45.617Z,99777.20
2023-03-27T15:22:23.357Z,99775.30
2023-03-27T15:24:51.864Z,99773.06
2023-03-27T15:27:24.149Z,99771.20
2023-03-27T15:29:53.685Z,99768.50
2023-03-27T15:32:22.435Z,99762.14
2023-03-27T15:34:57.001Z,99757.63
2023-03-27T15:37:25.688Z,99757.59
2023-03-27T15:40:00.840Z,99748.75
2023-03-27T15:42:32.563Z,99750.26
2023-03-27T15:45:02.869Z,99745.66
2023-03-27T15:47:32.938Z,99743.05
2023-03-27T15:50:15.612Z,99740.63
2023-03-27T15:52:48.180Z,99738.59
2023-03-27T15:55:30.161Z,99745.02
2023-03-27T15:57:58.649Z,99746.23
2023-03-27T16:00:28.925Z,99745.11
2023-03-27T16:02:58.322Z,99746.20
2023-03-27T16:05:27.309Z,99746.61
2023-03-27T16:07:55.591Z,99744.78
2023-03-27T16:10:28.869Z,99736.61
2023-03-27T16:12:58.566Z,99733.19
2023-03-27T16:15:47.070Z,99736.36
2023-03-27T16:18:19.351Z,99724.45
2023-03-27T16:20:48.112Z,99720.80
2023-03-27T16:23:16.545Z,99721.02
2023-03-27T16:26:05.503Z,99717.88
2023-03-27T16:28:35.876Z,99721.32
2023-03-27T16:31:14.372Z,99730.69
2023-03-27T16:33:46.384Z,99726.84
2023-03-27T16:36:24.556Z,99723.69
2023-03-27T16:38:54.464Z,99718.05
2023-03-27T16:41:23.992Z,99716.81
2023-03-27T16:43:54.107Z,99716.27
2023-03-27T16:46:24.193Z,99717.49
2023-03-27T16:48:52.925Z,99717.11
2023-03-27T16:51:22.230Z,99707.37
2023-03-27T16:53:50.610Z,99707.99
2023-03-27T16:56:21.687Z,99706.81
2023-03-27T16:58:51.918Z,99704.23
2023-03-27T17:01:20.473Z,99700.60
2023-03-27T17:03:49.071Z,99695.39
2023-03-27T17:06:19.614Z,99698.24
2023-03-27T17:08:49.389Z,99696.61
2023-03-27T17:11:17.771Z,99693.39
2023-03-27T17:13:46.475Z,99690.11
2023-03-27T17:16:15.558Z,99699.55
2023-03-27T17:18:45.244Z,99693.05
2023-03-27T17:21:17.160Z,99689.73
2023-03-27T17:23:48.540Z,99690.48
2023-03-27T17:26:24.706Z,99687.28
2023-03-27T17:28:53.053Z,99690.29
2023-03-27T17:31:21.323Z,99697.80
2023-03-27T17:33:50.859Z,99693.38
2023-03-27T17:36:26.665Z,99693.53
2023-03-27T17:38:58.176Z,99697.19
2023-03-27T17:41:28.257Z,99697.32
2023-03-27T17:44:00.164Z,99692.38
2023-03-27T17:46:29.362Z,99691.02
2023-03-27T17:48:58.597Z,99694.68
2023-03-27T17:51:27.310Z,99698.09
2023-03-27T17:53:56.718Z,99695.70
2023-03-27T17:56:25.317Z,99698.15
2023-03-27T17:58:54.548Z,99696.91
2023-03-27T18:01:23.112Z,99687.88
2023-03-27T18:03:51.926Z,99686.13
2023-03-27T18:06:20.204Z,99684.83
2023-03-27T18:08:48.446Z,99675.95
2023-03-27T18:11:20.373Z,99669.48
2023-03-27T18:13:53.358Z,99668.19
2023-03-27T18:16:23.279Z,99661.66
2023-03-27T18:18:55.010Z,99653.23
2023-03-27T18:21:23.433Z,99654.36
2023-03-27T18:23:56.705Z,99657.94
2023-03-27T18:26:25.082Z,99660.05
2023-03-27T18:28:55.086Z,99664.80
2023-03-27T18:31:24.112Z,99659.70
2023-03-27T18:33:52.421Z,99658.27
2023-03-27T18:36:20.987Z,99650.45
2023-03-27T18:38:50.366Z,99649.10
2023-03-27T18:41:19.552Z,99650.60
2023-03-27T18:43:48.093Z,99649.89
2023-03-27T18:46:17.310Z,99647.16
2023-03-27T18:48:46.825Z,99647.15
2023-03-27T18:51:20.410Z,99638.80
2023-03-27T18:53:49.537Z,99627.11
2023-03-27T18:56:23.333Z,99628.76
2023-03-27T18:58:51.845Z,99617.83
2023-03-27T19:01:20.173Z,99610.73
2023-03-27T19:03:50.606Z,99602.04
2023-03-27T19:06:20.395Z,99598.84
2023-03-27T19:08:49.094Z,99599.84
2023-03-27T19:11:19.075Z,99601.23
2023-03-27T19:14:03.361Z,99602.00
2023-03-27T19:16:38.496Z,99597.21
2023-03-27T19:19:25.873Z,99592.28
2023-03-27T19:21:54.708Z,99598.45
2023-03-27T19:24:40.845Z,99588.68
2023-03-27T19:27:23.607Z,99590.55
2023-03-27T19:29:54.118Z,99586.39
2023-03-27T19:32:24.359Z,99579.94
2023-03-27T19:34:52.772Z,99583.89
2023-03-27T19:37:22.383Z,99587.58
2023-03-27T19:39:51.547Z,99582.59
2023-03-27T19:42:20.287Z,99576.86
2023-03-27T19:44:49.204Z,99566.14
2023-03-27T19:47:18.375Z,99563.37
2023-03-27T19:49:48.578Z,99560.80
2023-03-27T19:52:40.907Z,99554.30
2023-03-27T19:55:10.218Z,99549.84
2023-03-27T19:57:40.514Z,99547.37
2023-03-27T20:00:12.953Z,99543.41
2023-03-27T20:02:44.131Z,99532.63
2023-03-27T20:05:12.434Z,99529.96
2023-03-27T20:07:47.138Z,99519.36
2023-03-27T20:10:16.470Z,99515.13
2023-03-27T20:12:44.943Z,99508.59
2023-03-27T20:15:23.270Z,99503.66
2023-03-27T20:17:52.233Z,99496.59
2023-03-27T20:20:20.777Z,99492.83
2023-03-27T20:22:57.984Z,99485.36
2023-03-27T20:25:30.108Z,99488.05
2023-03-27T20:27:58.525Z,99480.45
2023-03-27T20:30:27.847Z,99483.84
2023-03-27T20:32:56.635Z,99482.92
2023-03-27T20:35:25.233Z,99482.20
2023-03-27T20:37:57.913Z,99478.33
2023-03-27T20:40:32.896Z,99475.80
2023-03-27T20:43:06.122Z,99472.95
2023-03-27T20:45:34.617Z,99460.73
2023-03-27T20:48:03.486Z,99457.48
2023-03-27T20:50:35.955Z,99445.30
2023-03-27T20:53:04.870Z,99436.80
2023-03-27T20:55:37.494Z,99430.35
2023-03-27T20:58:09.213Z,99427.02
2023-03-27T21:00:37.926Z,99423.52
2023-03-27T21:03:07.129Z,99417.86
2023-03-27T21:05:38.714Z,99407.24
2023-03-27T21:08:07.686Z,99401.21
2023-03-27T21:10:39.053Z,99395.81
2023-03-27T21:13:07.464Z,99386.85
2023-03-27T21:15:39.379Z,99380.66
2023-03-27T21:18:08.623Z,99377.58
2023-03-27T21:20:37.348Z,99370.67
2023-03-27T21:23:10.837Z,99366.34
2023-03-27T21:25:40.045Z,99362.01
2023-03-27T21:28:09.399Z,99353.77
2023-03-27T21:30:46.952Z,99346.11
2023-03-27T21:33:16.685Z,99335.14
2023-03-27T21:35:47.072Z,99329.29
2023-03-27T21:38:16.758Z,99329.48
2023-03-27T21:40:45.822Z,99329.16
2023-03-27T21:43:17.249Z,99322.20
2023-03-27T21:45:47.003Z,99317.70
2023-03-27T21:48:17.987Z,99305.02
2023-03-27T21:50:46.317Z,99299.81
2023-03-27T21:53:14.849Z,99296.60
2023-03-27T21:55:45.567Z,99287.89
2023-03-27T21:58:14.331Z,99280.31
2023-03-27T22:00:46.755Z,99274.03
2023-03-27T22:03:16.184Z,99270.89
2023-03-27T22:05:49.171Z,99272.26
2023-03-27T22:08:24.412Z,99274.93
2023-03-27T22:10:57.060Z,99289.70
2023-03-27T22:13:25.374Z,99328.86
2023-03-27T22:15:54.220Z,99360.84
2023-03-27T22:18:22.616Z,99359.27
2023-03-27T22:20:51.196Z,99361.70
2023-03-27T22:23:20.066Z,99366.39
2023-03-27T22:25:52.738Z,99372.25
2023-03-27T22:28:21.337Z,99356.07
2023-03-27T22:30:51.072Z,99311.61
2023-03-27T22:33:20.064Z,99315.15
2023-03-27T22:35:50.012Z,99324.55
2023-03-27T22:38:18.750Z,99359.42
2023-03-27T22:40:46.877Z,99386.93
2023-03-27T22:43:22.919Z,99404.58
2023-03-27T22:45:52.643Z,99388.05
2023-03-27T22:48:21.660Z,99392.94
2023-03-27T22:50:53.768Z,99376.02
2023-03-27T22:53:27.665Z,99358.28
2023-03-27T22:55:57.278Z,99327.04
2023-03-27T22:58:26.070Z,99283.36
2023-03-27T23:00:55.506Z,99319.20
2023-03-27T23:03:24.525Z,99308.57
2023-03-27T23:05:53.447Z,99313.29
2023-03-27T23:08:22.170Z,99293.95
2023-03-27T23:10:57.230Z,99276.65
2023-03-27T23:13:33.375Z,99269.82
2023-03-27T23:16:03.197Z,99264.05
2023-03-27T23:18:31.949Z,99247.70
2023-03-27T23:21:02.728Z,99245.70
2023-03-27T23:23:31.475Z,99238.38
2023-03-27T23:26:00.313Z,99231.22
2023-03-27T23:28:31.458Z,99223.02
2023-03-27T23:31:00.603Z,99213.85
2023-03-27T23:33:36.100Z,99202.96
2023-03-27T23:36:17.614Z,99195.90
2023-03-27T23:38:46.209Z,99191.42
2023-03-27T23:41:14.842Z,99183.79
2023-03-27T23:43:43.172Z,99180.84
2023-03-27T23:46:11.438Z,99172.36
2023-03-27T23:48:40.640Z,99168.96
2023-03-27T23:51:08.888Z,99171.13
2023-03-27T23:53:39.015Z,99169.44
2023-03-27T23:56:07.762Z,99166.55
2023-03-27T23:58:37.489Z,99158.48
